Kamikawa Maru — JG5687 — position and weather

sailwx.info

Track history (hours):
 
Tides and Currents Weather Stations Pressure Air Temp Water Temp Dewpoint Dewpoint Depression Visibility Wind Speed Wind Dir Waves Ship Positions

Kamikawa Maru

Last reported at 2016-Jun-28 13:26 UTC. Time now 2016-Jun-30 21:25 UTC.
Position N 35°14' E 140°44'.

Length 162 m; draft 6.8 m.

Type: Cargo ship. MMSI: 431101012.

Date/timePositionNaut miles runAvg speedWind from/ knotsBaromVisibWave heightAir tempDewpointWater temp
2016-Jun-28 13:26N 35°14' E 140°44'1516.7
2016-Jun-28 12:32N 35°04' E 140°31'1717.1
2016-Jun-28 11:33N 34°57' E 140°12'1816.6
2016-Jun-28 10:28N 34°51' E 139°51'1415.4
2016-Jun-28 09:33N 35°03' E 139°43'1515.2
2016-Jun-28 08:33N 35°19' E 139°44'1615.9
2016-Jun-28 07:33N 35°34' E 139°49'5 4.8
2016-Jun-28 06:32N 35°38' E 139°46'0 0.0
2016-Jun-28 04:32N 35°38' E 139°46'0 0.0
2016-Jun-28 03:29N 35°38' E 139°46'0 0.0
2016-Jun-28 02:29N 35°38' E 139°46'0 0.0
2016-Jun-28 01:32N 35°38' E 139°46'0 0.0
2016-Jun-28 00:32N 35°38' E 139°46'0 0.0
2016-Jun-27 23:33N 35°38' E 139°46'1211.6
2016-Jun-27 22:33N 35°26' E 139°49'1212.2
2016-Jun-27 21:33N 35°14' E 139°47'1616.5
2016-Jun-27 20:33N 34°59' E 139°38'1817.7
2016-Jun-27 19:33N 34°49' E 139°20'49 1.4
2016-Jun-26 09:31N 34°32' E 138°24'4916.5
2016-Jun-26 06:33N 34°49' E 139°20'1918.3
2016-Jun-26 05:32N 35°02' E 139°37'1616.0
2016-Jun-26 04:33N 35°16' E 139°46'1414.2
2016-Jun-26 03:34N 35°29' E 139°50'9 9.0
2016-Jun-26 02:31N 35°38' E 139°46'0 0.0
2016-Jun-26 01:31N 35°38' E 139°46'0 0.0
2016-Jun-26 00:31N 35°38' E 139°46'0 0.0
2016-Jun-25 23:33N 35°38' E 139°46'1211.8
2016-Jun-25 22:33N 35°26' E 139°49'1212.4
2016-Jun-25 21:33N 35°14' E 139°47'1515.5
2016-Jun-25 20:33N 34°59' E 139°44'1514.3
2016-Jun-25 19:32N 34°54' E 140°01'3216.3
2016-Jun-25 17:33N 35°13' E 140°32'1717.0
2016-Jun-25 16:33N 35°27' E 140°44'1716.7
2016-Jun-25 15:33N 35°41' E 140°56'1916.5
2016-Jun-25 14:24N 35°60' E 140°59'  
2016-Jun-21 17:20N 36°06' E 141°01'1718.8
2016-Jun-21 16:24N 35°49' E 140°57'2118.7
2016-Jun-21 15:17N 35°30' E 140°48'1419.7
2016-Jun-21 14:33N 35°17' E 140°38'2020.0
2016-Jun-21 13:33N 35°03' E 140°21'2220.1
2016-Jun-21 12:26N 34°52' E 139°57'1516.4
2016-Jun-21 11:33N 34°59' E 139°42'1717.1
2016-Jun-21 10:33N 35°16' E 139°46'1414.0
2016-Jun-21 09:33N 35°29' E 139°50'9 9.2
2016-Jun-21 08:33N 35°38' E 139°46'0 0.0
2016-Jun-21 07:33N 35°38' E 139°46'0 0.0
2016-Jun-21 06:24N 35°38' E 139°46'0 0.0
2016-Jun-21 04:33N 35°38' E 139°46'0 0.0
2016-Jun-21 03:33N 35°38' E 139°46'0 0.0
2016-Jun-21 02:33N 35°38' E 139°46'0 0.0
2016-Jun-21 01:33N 35°38' E 139°46'0 0.0
2016-Jun-21 00:33N 35°38' E 139°46'0 0.0
2016-Jun-20 23:33N 35°38' E 139°46'1111.2
2016-Jun-20 22:33N 35°27' E 139°50'1211.8
2016-Jun-20 21:33N 35°16' E 139°46'1615.7
2016-Jun-20 20:34N 35°01' E 139°39'1818.5
2016-Jun-20 19:33N 34°50' E 139°21'5016.4
2016-Jun-20 16:29N 34°30' E 138°25'2 0.1
2016-Jun-19 12:18N 34°32' E 138°27'4917.6
2016-Jun-19 09:31N 34°51' E 139°21'1919.1
2016-Jun-19 08:31N 35°04' E 139°39'1414.8
2016-Jun-19 07:33N 35°17' E 139°45'1514.6
2016-Jun-19 06:33N 35°31' E 139°50'8 7.6
2016-Jun-19 05:30N 35°38' E 139°46'0 0.0
2016-Jun-19 04:30N 35°38' E 139°46'0 0.0
2016-Jun-19 03:33N 35°38' E 139°46'0 0.0
2016-Jun-19 02:30N 35°38' E 139°46'0 0.1
2016-Jun-19 01:33N 35°38' E 139°46'0 0.0
2016-Jun-19 00:33N 35°38' E 139°46'0 0.0
2016-Jun-18 23:33N 35°38' E 139°46'1111.1
2016-Jun-18 22:33N 35°27' E 139°50'1212.2
2016-Jun-18 21:33N 35°16' E 139°47'1616.2
2016-Jun-18 20:33N 34°60' E 139°44'1413.6
2016-Jun-18 19:34N 34°53' E 139°59'1817.9
2016-Jun-18 18:34N 35°02' E 140°18'1717.0
2016-Jun-18 17:34N 35°13' E 140°33'1717.1
2016-Jun-18 16:33N 35°28' E 140°44'1817.6
2016-Jun-18 15:34N 35°42' E 140°56'1716.8
2016-Jun-18 14:33N 35°59' E 141°01'1817.6
2016-Jun-18 13:33N 36°16' E 141°04'  
Track history (hours):
 
Tides and Currents Weather Stations Pressure Air Temp Water Temp Dewpoint Dewpoint Depression Visibility Wind Speed Wind Dir Waves Ship Positions

Kamikawa Maru

Last reported at 2016-Jun-28 13:26 UTC. Time now 2016-Jun-30 21:25 UTC.
Position N 35°14' E 140°44'.

Length 162 m; draft 6.8 m.

Type: Cargo ship. MMSI: 431101012.

Date/timePositionNaut miles runAvg speedWind from/ knotsBaromVisibWave heightAir tempDewpointWater temp
2016-Jun-28 13:26N 35°14' E 140°44'1516.7
2016-Jun-28 12:32N 35°04' E 140°31'1717.1
2016-Jun-28 11:33N 34°57' E 140°12'1816.6
2016-Jun-28 10:28N 34°51' E 139°51'1415.4
2016-Jun-28 09:33N 35°03' E 139°43'1515.2
2016-Jun-28 08:33N 35°19' E 139°44'1615.9
2016-Jun-28 07:33N 35°34' E 139°49'5 4.8
2016-Jun-28 06:32N 35°38' E 139°46'0 0.0
2016-Jun-28 04:32N 35°38' E 139°46'0 0.0
2016-Jun-28 03:29N 35°38' E 139°46'0 0.0
2016-Jun-28 02:29N 35°38' E 139°46'0 0.0
2016-Jun-28 01:32N 35°38' E 139°46'0 0.0
2016-Jun-28 00:32N 35°38' E 139°46'0 0.0
2016-Jun-27 23:33N 35°38' E 139°46'1211.6
2016-Jun-27 22:33N 35°26' E 139°49'1212.2
2016-Jun-27 21:33N 35°14' E 139°47'1616.5
2016-Jun-27 20:33N 34°59' E 139°38'1817.7
2016-Jun-27 19:33N 34°49' E 139°20'49 1.4
2016-Jun-26 09:31N 34°32' E 138°24'4916.5
2016-Jun-26 06:33N 34°49' E 139°20'1918.3
2016-Jun-26 05:32N 35°02' E 139°37'1616.0
2016-Jun-26 04:33N 35°16' E 139°46'1414.2
2016-Jun-26 03:34N 35°29' E 139°50'9 9.0
2016-Jun-26 02:31N 35°38' E 139°46'0 0.0
2016-Jun-26 01:31N 35°38' E 139°46'0 0.0
2016-Jun-26 00:31N 35°38' E 139°46'0 0.0
2016-Jun-25 23:33N 35°38' E 139°46'1211.8
2016-Jun-25 22:33N 35°26' E 139°49'1212.4
2016-Jun-25 21:33N 35°14' E 139°47'1515.5
2016-Jun-25 20:33N 34°59' E 139°44'1514.3
2016-Jun-25 19:32N 34°54' E 140°01'3216.3
2016-Jun-25 17:33N 35°13' E 140°32'1717.0
2016-Jun-25 16:33N 35°27' E 140°44'1716.7
2016-Jun-25 15:33N 35°41' E 140°56'1916.5
2016-Jun-25 14:24N 35°60' E 140°59'  
2016-Jun-21 17:20N 36°06' E 141°01'1718.8
2016-Jun-21 16:24N 35°49' E 140°57'2118.7
2016-Jun-21 15:17N 35°30' E 140°48'1419.7
2016-Jun-21 14:33N 35°17' E 140°38'2020.0
2016-Jun-21 13:33N 35°03' E 140°21'2220.1
2016-Jun-21 12:26N 34°52' E 139°57'1516.4
2016-Jun-21 11:33N 34°59' E 139°42'1717.1
2016-Jun-21 10:33N 35°16' E 139°46'1414.0
2016-Jun-21 09:33N 35°29' E 139°50'9 9.2
2016-Jun-21 08:33N 35°38' E 139°46'0 0.0
2016-Jun-21 07:33N 35°38' E 139°46'0 0.0
2016-Jun-21 06:24N 35°38' E 139°46'0 0.0
2016-Jun-21 04:33N 35°38' E 139°46'0 0.0
2016-Jun-21 03:33N 35°38' E 139°46'0 0.0
2016-Jun-21 02:33N 35°38' E 139°46'0 0.0
2016-Jun-21 01:33N 35°38' E 139°46'0 0.0
2016-Jun-21 00:33N 35°38' E 139°46'0 0.0
2016-Jun-20 23:33N 35°38' E 139°46'1111.2
2016-Jun-20 22:33N 35°27' E 139°50'1211.8
2016-Jun-20 21:33N 35°16' E 139°46'1615.7
2016-Jun-20 20:34N 35°01' E 139°39'1818.5
2016-Jun-20 19:33N 34°50' E 139°21'5016.4
2016-Jun-20 16:29N 34°30' E 138°25'2 0.1
2016-Jun-19 12:18N 34°32' E 138°27'4917.6
2016-Jun-19 09:31N 34°51' E 139°21'1919.1
2016-Jun-19 08:31N 35°04' E 139°39'1414.8
2016-Jun-19 07:33N 35°17' E 139°45'1514.6
2016-Jun-19 06:33N 35°31' E 139°50'8 7.6
2016-Jun-19 05:30N 35°38' E 139°46'0 0.0
2016-Jun-19 04:30N 35°38' E 139°46'0 0.0
2016-Jun-19 03:33N 35°38' E 139°46'0 0.0
2016-Jun-19 02:30N 35°38' E 139°46'0 0.1
2016-Jun-19 01:33N 35°38' E 139°46'0 0.0
2016-Jun-19 00:33N 35°38' E 139°46'0 0.0
2016-Jun-18 23:33N 35°38' E 139°46'1111.1
2016-Jun-18 22:33N 35°27' E 139°50'1212.2
2016-Jun-18 21:33N 35°16' E 139°47'1616.2
2016-Jun-18 20:33N 34°60' E 139°44'1413.6
2016-Jun-18 19:34N 34°53' E 139°59'1817.9
2016-Jun-18 18:34N 35°02' E 140°18'1717.0
2016-Jun-18 17:34N 35°13' E 140°33'1717.1
2016-Jun-18 16:33N 35°28' E 140°44'1817.6
2016-Jun-18 15:34N 35°42' E 140°56'1716.8
2016-Jun-18 14:33N 35°59' E 141°01'1817.6
2016-Jun-18 13:33N 36°16' E 141°04'  

Dump ship's entire track history